createdAt,value
2023-03-27T00:00:17.062Z,101342.47
2023-03-27T00:02:49.095Z,101349.41
2023-03-27T00:05:22.845Z,101351.91
2023-03-27T00:07:55.921Z,101345.09
2023-03-27T00:10:26.883Z,101351.19
2023-03-27T00:12:57.350Z,101355.59
2023-03-27T00:15:27.387Z,101356.41
2023-03-27T00:17:58.950Z,101351.00
2023-03-27T00:20:31.573Z,101357.84
2023-03-27T00:23:02.650Z,101357.66
2023-03-27T00:25:33.257Z,101359.16
2023-03-27T00:28:03.275Z,101366.91
2023-03-27T00:30:34.424Z,101364.81
2023-03-27T00:33:04.764Z,101366.22
2023-03-27T00:35:37.553Z,101375.66
2023-03-27T00:38:08.023Z,101379.97
2023-03-27T00:40:37.969Z,101376.44
2023-03-27T00:43:22.764Z,101379.97
2023-03-27T00:45:55.701Z,101382.38
2023-03-27T00:48:27.364Z,101395.22
2023-03-27T00:51:01.494Z,101390.81
2023-03-27T00:53:32.316Z,101396.03
2023-03-27T00:56:04.605Z,101392.50
2023-03-27T00:58:40.373Z,101403.75
2023-03-27T01:01:12.953Z,101402.03
2023-03-27T01:03:44.961Z,101392.41
2023-03-27T01:06:18.825Z,101396.75
2023-03-27T01:08:49.329Z,101394.13
2023-03-27T01:11:29.798Z,101399.41
2023-03-27T01:14:11.397Z,101398.72
2023-03-27T01:16:49.680Z,101397.22
2023-03-27T01:19:48.826Z,101402.63
2023-03-27T01:22:46.301Z,101397.00
2023-03-27T01:25:36.083Z,101397.19
2023-03-27T01:28:19.837Z,101385.16
2023-03-27T01:30:54.909Z,101384.53
2023-03-27T01:33:42.575Z,101397.06
2023-03-27T01:36:28.040Z,101399.75
2023-03-27T01:39:20.562Z,101397.34
2023-03-27T01:41:57.543Z,101394.66
2023-03-27T01:44:42.964Z,101395.38
2023-03-27T01:47:24.639Z,101400.56
2023-03-27T01:49:58.884Z,101412.72
2023-03-27T01:52:32.434Z,101428.88
2023-03-27T01:55:10.128Z,101422.19
2023-03-27T01:57:50.676Z,101425.50
2023-03-27T02:00:25.384Z,101437.84
2023-03-27T02:02:59.528Z,101432.72
2023-03-27T02:05:35.152Z,101439.13
2023-03-27T02:08:11.401Z,101439.53
2023-03-27T02:10:48.933Z,101453.25
2023-03-27T02:13:23.089Z,101440.84
2023-03-27T02:15:53.895Z,101439.03
2023-03-27T02:18:31.759Z,101444.94
2023-03-27T02:21:02.591Z,101438.81
2023-03-27T02:23:33.571Z,101446.06
2023-03-27T02:26:06.384Z,101445.56
2023-03-27T02:28:42.909Z,101446.66
2023-03-27T02:31:34.831Z,101458.91
2023-03-27T02:34:29.474Z,101449.44
2023-03-27T02:37:06.892Z,101454.78
2023-03-27T02:39:44.847Z,101448.75
2023-03-27T02:42:23.872Z,101448.88
2023-03-27T02:45:01.362Z,101448.88
2023-03-27T02:47:37.362Z,101451.78
2023-03-27T02:50:13.313Z,101448.34
2023-03-27T02:52:47.043Z,101452.09
2023-03-27T02:55:21.126Z,101455.59
2023-03-27T02:57:59.693Z,101461.00
2023-03-27T03:00:30.596Z,101458.59
2023-03-27T03:03:08.669Z,101456.91
2023-03-27T03:05:41.392Z,101463.91
2023-03-27T03:08:11.586Z,101457.81
2023-03-27T03:10:46.694Z,101463.03
2023-03-27T03:13:20.819Z,101464.81
2023-03-27T03:15:50.918Z,101459.59
2023-03-27T03:18:20.752Z,101463.81
2023-03-27T03:20:50.659Z,101462.41
2023-03-27T03:23:20.473Z,101471.44
2023-03-27T03:25:52.846Z,101469.94
2023-03-27T03:28:26.234Z,101473.56
2023-03-27T03:30:59.257Z,101467.41
2023-03-27T03:33:30.300Z,101465.81
2023-03-27T03:36:02.393Z,101481.47
2023-03-27T03:38:38.210Z,101472.53
2023-03-27T03:41:09.653Z,101484.47
2023-03-27T03:43:42.106Z,101484.38
2023-03-27T03:46:12.026Z,101486.88
2023-03-27T03:48:41.932Z,101487.78
2023-03-27T03:51:11.984Z,101503.34
2023-03-27T03:53:41.859Z,101491.00
2023-03-27T03:56:12.278Z,101504.81
2023-03-27T03:58:44.734Z,101505.75
2023-03-27T04:01:14.535Z,101506.53
2023-03-27T04:03:44.393Z,101511.75
2023-03-27T04:06:14.347Z,101518.78
2023-03-27T04:08:44.797Z,101519.69
2023-03-27T04:11:14.634Z,101519.75
2023-03-27T04:13:47.046Z,101528.41
2023-03-27T04:16:17.021Z,101528.28
2023-03-27T04:18:46.936Z,101531.00
2023-03-27T04:21:18.092Z,101532.81
2023-03-27T04:23:49.430Z,101544.25
2023-03-27T04:26:19.391Z,101544.63
2023-03-27T04:28:51.963Z,101549.94
2023-03-27T04:31:21.788Z,101550.91
2023-03-27T04:33:52.460Z,101568.22
2023-03-27T04:36:22.814Z,101592.88
2023-03-27T04:38:52.741Z,101594.06
2023-03-27T04:41:22.649Z,101596.00
2023-03-27T04:43:56.079Z,101593.06
2023-03-27T04:46:25.962Z,101593.88
2023-03-27T04:48:56.670Z,101590.03
2023-03-27T04:51:27.180Z,101591.75
2023-03-27T04:53:57.467Z,101584.16
2023-03-27T04:56:27.444Z,101586.63
2023-03-27T04:59:00.540Z,101594.06
2023-03-27T05:01:30.453Z,101592.47
2023-03-27T05:04:02.648Z,101599.63
2023-03-27T05:06:33.133Z,101598.59
2023-03-27T05:09:03.551Z,101606.06
2023-03-27T05:11:34.560Z,101606.63
2023-03-27T05:14:07.264Z,101616.50
2023-03-27T05:16:37.266Z,101612.97
2023-03-27T05:19:07.327Z,101612.97
2023-03-27T05:21:37.450Z,101612.09
2023-03-27T05:24:08.232Z,101612.09
2023-03-27T05:26:39.448Z,101609.25
2023-03-27T05:29:12.328Z,101608.69
2023-03-27T05:31:42.135Z,101616.50
2023-03-27T05:34:11.987Z,101619.34
2023-03-27T05:36:41.784Z,101627.94
2023-03-27T05:39:11.562Z,101633.28
2023-03-27T05:41:41.592Z,101636.97
2023-03-27T05:44:14.032Z,101632.91
2023-03-27T05:46:44.013Z,101634.94
2023-03-27T05:49:14.170Z,101636.16
2023-03-27T05:51:47.139Z,101633.19
2023-03-27T05:54:17.365Z,101639.28
2023-03-27T05:56:47.195Z,101642.75
2023-03-27T05:59:20.681Z,101648.72
2023-03-27T06:01:51.112Z,101650.59
2023-03-27T06:04:22.478Z,101641.72
2023-03-27T06:06:52.302Z,101651.28
2023-03-27T06:09:22.129Z,101651.09
2023-03-27T06:11:52.213Z,101649.91
2023-03-27T06:14:24.654Z,101666.44
2023-03-27T06:16:54.846Z,101660.78
2023-03-27T06:19:25.034Z,101662.75
2023-03-27T06:21:54.907Z,101671.09
2023-03-27T06:24:24.779Z,101683.38
2023-03-27T06:26:56.461Z,101685.75
2023-03-27T06:29:29.809Z,101690.28
2023-03-27T06:32:01.931Z,101692.41
2023-03-27T06:34:31.706Z,101689.31
2023-03-27T06:37:03.822Z,101687.72
2023-03-27T06:39:33.610Z,101687.31
2023-03-27T06:42:03.650Z,101699.06
2023-03-27T06:44:36.245Z,101694.84
2023-03-27T06:47:06.659Z,101700.88
2023-03-27T06:49:36.565Z,101708.72
2023-03-27T06:52:07.074Z,101698.16
2023-03-27T06:54:37.047Z,101720.25
2023-03-27T06:57:07.014Z,101722.50
2023-03-27T06:59:39.464Z,101734.28
2023-03-27T07:02:09.807Z,101730.72
2023-03-27T07:04:40.832Z,101741.41
2023-03-27T07:07:11.521Z,101739.47
2023-03-27T07:09:41.474Z,101743.31
2023-03-27T07:12:11.958Z,101749.31
2023-03-27T07:14:44.476Z,101755.13
2023-03-27T07:17:14.581Z,101769.72
2023-03-27T07:19:44.486Z,101770.94
2023-03-27T07:22:14.449Z,101775.84
2023-03-27T07:24:44.304Z,101775.44
2023-03-27T07:27:14.398Z,101763.56
2023-03-27T07:29:46.982Z,101765.66
2023-03-27T07:32:29.785Z,101775.63
2023-03-27T07:35:07.108Z,101775.75
2023-03-27T07:37:38.289Z,101773.19
2023-03-27T07:40:13.453Z,101779.09
2023-03-27T07:42:48.633Z,101772.75
2023-03-27T07:45:22.771Z,101778.19
2023-03-27T07:47:52.673Z,101772.94
2023-03-27T07:50:24.652Z,101767.13
2023-03-27T07:52:54.471Z,101775.28
2023-03-27T07:55:24.343Z,101773.06
2023-03-27T07:58:01.562Z,101779.53
2023-03-27T08:00:35.722Z,101784.25
2023-03-27T08:03:10.237Z,101772.13
2023-03-27T08:05:41.000Z,101772.91
2023-03-27T08:08:11.315Z,101769.50
2023-03-27T08:10:42.100Z,101769.94
2023-03-27T08:13:12.852Z,101775.63
2023-03-27T08:15:45.424Z,101782.97
2023-03-27T08:18:15.363Z,101776.91
2023-03-27T08:20:46.016Z,101782.59
2023-03-27T08:23:16.638Z,101789.00
2023-03-27T08:25:49.343Z,101794.72
2023-03-27T08:28:19.224Z,101778.44
2023-03-27T08:30:52.090Z,101801.75
2023-03-27T08:33:22.490Z,101795.63
2023-03-27T08:35:52.902Z,101799.22
2023-03-27T08:38:27.048Z,101798.66
2023-03-27T08:40:59.509Z,101796.88
2023-03-27T08:43:33.551Z,101797.03
2023-03-27T08:46:11.712Z,101803.38
2023-03-27T08:48:47.356Z,101801.94
2023-03-27T08:51:23.030Z,101810.69
2023-03-27T08:53:58.477Z,101816.41
2023-03-27T08:56:29.056Z,101818.03
2023-03-27T08:58:59.036Z,101820.81
2023-03-27T09:01:35.749Z,101827.31
2023-03-27T09:04:14.682Z,101834.47
2023-03-27T09:06:54.872Z,101836.47
2023-03-27T09:09:38.917Z,101840.25
2023-03-27T09:12:16.888Z,101853.59
2023-03-27T09:14:49.613Z,101852.63
2023-03-27T09:17:27.470Z,101849.09
2023-03-27T09:20:02.139Z,101846.66
2023-03-27T09:22:37.146Z,101854.84
2023-03-27T09:25:19.326Z,101853.78
2023-03-27T09:27:55.159Z,101851.81
2023-03-27T09:30:29.791Z,101858.03
2023-03-27T09:33:07.575Z,101856.72
2023-03-27T09:35:42.495Z,101859.41
2023-03-27T09:38:29.932Z,101863.94
2023-03-27T09:41:06.872Z,101862.41
2023-03-27T09:43:44.496Z,101857.06
2023-03-27T09:46:21.002Z,101872.94
2023-03-27T09:49:00.658Z,101870.72
2023-03-27T09:51:47.698Z,101870.56
2023-03-27T09:54:19.252Z,101885.84
2023-03-27T09:56:53.526Z,101881.38
2023-03-27T09:59:35.579Z,101880.22
2023-03-27T10:02:34.626Z,101878.44
2023-03-27T10:05:23.376Z,101879.50
2023-03-27T10:08:43.219Z,101889.44
2023-03-27T10:12:02.096Z,101879.66
2023-03-27T10:14:34.851Z,101873.13
2023-03-27T10:17:08.284Z,101884.44
2023-03-27T10:19:42.633Z,101885.78
2023-03-27T10:22:29.175Z,101897.00
2023-03-27T10:25:03.788Z,101887.25
2023-03-27T10:27:37.210Z,101898.84
2023-03-27T10:30:30.505Z,101884.63
2023-03-27T10:33:00.488Z,101898.47
2023-03-27T10:35:36.708Z,101901.91
2023-03-27T10:40:59.366Z,101903.91
2023-03-27T10:43:40.903Z,101904.16
2023-03-27T10:46:15.299Z,101897.56
2023-03-27T10:48:55.269Z,101902.97
2023-03-27T10:51:53.271Z,101903.97
2023-03-27T10:54:37.323Z,101910.22
2023-03-27T10:57:13.211Z,101921.97
2023-03-27T10:59:48.544Z,101941.16
2023-03-27T11:02:21.983Z,101930.78
2023-03-27T11:05:00.026Z,101935.16
2023-03-27T11:07:34.139Z,101937.63
2023-03-27T11:10:18.302Z,101949.09
2023-03-27T11:12:54.013Z,101942.72
2023-03-27T11:15:31.130Z,101934.28
2023-03-27T11:18:05.911Z,101940.28
2023-03-27T11:20:44.419Z,101943.03
2023-03-27T11:23:20.564Z,101946.13
2023-03-27T11:26:00.209Z,101961.91
2023-03-27T11:28:43.037Z,101950.47
2023-03-27T11:31:24.809Z,101957.91
2023-03-27T11:34:01.128Z,101961.53
2023-03-27T11:36:40.098Z,101958.03
2023-03-27T11:39:18.315Z,101950.25
2023-03-27T11:41:54.716Z,101958.28
2023-03-27T11:44:29.610Z,101971.59
2023-03-27T11:47:27.154Z,101967.25
2023-03-27T11:50:36.753Z,101979.53
2023-03-27T11:53:31.735Z,101984.25
2023-03-27T11:56:14.057Z,101996.16
2023-03-27T11:58:56.896Z,101991.38
2023-03-27T12:01:30.963Z,102008.28
2023-03-27T12:04:11.613Z,102004.47
2023-03-27T12:06:50.389Z,102003.69
2023-03-27T12:09:37.813Z,101995.72
2023-03-27T12:12:20.749Z,102014.06
2023-03-27T12:15:07.681Z,102013.47
2023-03-27T12:17:52.839Z,102014.72
2023-03-27T12:20:52.768Z,102015.50
2023-03-27T12:23:54.126Z,102023.78
2023-03-27T12:26:38.280Z,102020.94
2023-03-27T12:29:24.584Z,102016.41
2023-03-27T12:32:09.916Z,102023.38
2023-03-27T12:34:57.071Z,102022.75
2023-03-27T12:37:30.267Z,102024.38
2023-03-27T12:40:02.404Z,102028.06
2023-03-27T12:42:53.208Z,102024.75
2023-03-27T12:45:27.713Z,102028.19
2023-03-27T12:48:24.331Z,102027.88
2023-03-27T12:51:00.063Z,102028.78
2023-03-27T12:53:52.810Z,102029.38
2023-03-27T12:56:34.250Z,102026.75
2023-03-27T12:59:06.561Z,102031.69
2023-03-27T13:01:58.419Z,102028.38
2023-03-27T13:04:56.707Z,102020.63
2023-03-27T13:07:31.648Z,102027.56
2023-03-27T13:10:22.685Z,102024.25
2023-03-27T13:13:23.454Z,102033.88
2023-03-27T13:16:32.894Z,102030.91
2023-03-27T13:19:22.357Z,102040.25
2023-03-27T13:22:14.928Z,102038.75
2023-03-27T13:25:02.941Z,102038.44
2023-03-27T13:27:46.988Z,102039.38
2023-03-27T13:30:46.054Z,102034.13
2023-03-27T13:33:19.539Z,102031.09
2023-03-27T13:36:11.761Z,102024.72
2023-03-27T13:39:25.066Z,102032.03
2023-03-27T13:42:04.648Z,102042.91
2023-03-27T13:44:50.013Z,102052.34
2023-03-27T13:48:04.056Z,102056.97
2023-03-27T13:50:54.959Z,102058.38
2023-03-27T13:53:51.349Z,102044.38
2023-03-27T13:56:41.326Z,102063.63
2023-03-27T13:59:32.588Z,102053.16
2023-03-27T14:02:26.402Z,102055.06
2023-03-27T14:05:25.263Z,102059.78
2023-03-27T14:08:13.691Z,102060.06
2023-03-27T14:10:58.071Z,102065.00
2023-03-27T14:13:47.661Z,102072.25
2023-03-27T14:16:49.949Z,102086.00
2023-03-27T14:19:55.542Z,102080.47
2023-03-27T14:22:29.441Z,102091.97
2023-03-27T14:25:05.563Z,102081.53
2023-03-27T14:27:39.637Z,102087.69
2023-03-27T14:30:33.341Z,102085.91
2023-03-27T14:33:11.697Z,102086.63
2023-03-27T14:35:44.476Z,102091.03
2023-03-27T14:38:22.548Z,102099.97
2023-03-27T14:40:54.881Z,102093.75
2023-03-27T14:43:25.128Z,102098.00
2023-03-27T14:46:11.825Z,102096.28
2023-03-27T14:48:45.327Z,102103.31
2023-03-27T14:51:25.264Z,102097.34
2023-03-27T14:54:01.481Z,102097.28
2023-03-27T14:56:37.451Z,102104.25
2023-03-27T14:59:15.780Z,102107.84
2023-03-27T15:01:50.003Z,102106.22
2023-03-27T15:04:20.754Z,102094.97
2023-03-27T15:06:51.018Z,102107.25
2023-03-27T15:09:23.831Z,102103.78
2023-03-27T15:11:59.374Z,102107.13
2023-03-27T15:14:44.106Z,102107.56
2023-03-27T15:17:20.420Z,102114.69
2023-03-27T15:19:54.493Z,102116.75
2023-03-27T15:22:30.058Z,102115.22
2023-03-27T15:25:09.005Z,102132.22
2023-03-27T15:27:43.832Z,102133.81
2023-03-27T15:30:28.369Z,102131.00
2023-03-27T15:33:09.138Z,102126.59
2023-03-27T15:35:42.072Z,102128.97
2023-03-27T15:38:19.908Z,102142.28
2023-03-27T15:40:49.836Z,102129.28
2023-03-27T15:43:25.904Z,102135.72
2023-03-27T15:46:17.300Z,102135.72
2023-03-27T15:48:56.631Z,102137.75
2023-03-27T15:51:43.676Z,102146.63
2023-03-27T15:54:28.349Z,102139.47
2023-03-27T15:57:10.657Z,102139.97
2023-03-27T15:59:51.843Z,102144.59
2023-03-27T16:02:28.380Z,102144.59
2023-03-27T16:05:02.180Z,102142.06
2023-03-27T16:07:47.438Z,102138.66
2023-03-27T16:10:31.200Z,102145.00
2023-03-27T16:13:04.396Z,102145.91
2023-03-27T16:15:37.715Z,102151.56
2023-03-27T16:18:23.246Z,102144.72
2023-03-27T16:20:55.872Z,102145.75
2023-03-27T16:23:25.774Z,102148.34
2023-03-27T16:26:07.303Z,102146.31
2023-03-27T16:28:52.929Z,102146.13
2023-03-27T16:31:24.157Z,102160.19
2023-03-27T16:33:55.388Z,102165.59
2023-03-27T16:36:34.180Z,102164.19
2023-03-27T16:39:10.391Z,102173.41
2023-03-27T16:41:40.386Z,102176.81
2023-03-27T16:44:12.535Z,102182.03
2023-03-27T16:46:42.573Z,102181.97
2023-03-27T16:49:15.112Z,102206.69
2023-03-27T16:51:47.674Z,102189.22
2023-03-27T16:54:20.202Z,102186.88
2023-03-27T16:56:52.457Z,102186.75
2023-03-27T16:59:22.903Z,102193.81
2023-03-27T17:01:52.997Z,102196.63
2023-03-27T17:04:22.956Z,102189.81
2023-03-27T17:06:58.055Z,102185.34
2023-03-27T17:09:27.988Z,102191.59
2023-03-27T17:12:00.646Z,102198.69
2023-03-27T17:14:30.915Z,102195.81
2023-03-27T17:17:00.768Z,102205.63
2023-03-27T17:19:34.972Z,102198.56
2023-03-27T17:22:07.878Z,102208.81
2023-03-27T17:24:49.081Z,102190.16
2023-03-27T17:27:26.889Z,102202.22
2023-03-27T17:29:58.041Z,102203.13
2023-03-27T17:32:30.902Z,102209.03
2023-03-27T17:35:01.988Z,102217.50
2023-03-27T17:37:34.495Z,102227.13
2023-03-27T17:40:27.223Z,102219.28
2023-03-27T17:43:08.247Z,102221.50
2023-03-27T17:45:46.125Z,102223.88
2023-03-27T17:48:16.581Z,102211.50
2023-03-27T17:51:01.163Z,102217.50
2023-03-27T17:53:39.511Z,102224.44
2023-03-27T17:56:10.945Z,102216.59
2023-03-27T17:58:42.111Z,102225.25
2023-03-27T18:01:19.968Z,102223.56
2023-03-27T18:03:53.472Z,102227.88
2023-03-27T18:06:23.361Z,102220.03
2023-03-27T18:08:55.792Z,102224.31
2023-03-27T18:11:26.182Z,102227.75
2023-03-27T18:13:56.327Z,102228.31
2023-03-27T18:16:46.947Z,102230.03
2023-03-27T18:19:18.292Z,102235.03
2023-03-27T18:22:00.125Z,102229.91
2023-03-27T18:24:32.778Z,102238.69
2023-03-27T18:27:11.633Z,102247.31
2023-03-27T18:29:55.409Z,102239.47
2023-03-27T18:32:27.287Z,102251.41
2023-03-27T18:37:43.128Z,102252.31
2023-03-27T18:40:29.366Z,102263.56
2023-03-27T18:43:14.267Z,102257.09
2023-03-27T18:45:44.206Z,102258.69
2023-03-27T18:48:25.732Z,102254.25
2023-03-27T18:50:58.004Z,102253.00
2023-03-27T18:53:51.960Z,102266.06
2023-03-27T18:56:24.656Z,102271.19
2023-03-27T18:59:00.112Z,102271.28
2023-03-27T19:01:44.240Z,102268.59
2023-03-27T19:04:26.918Z,102279.03
2023-03-27T19:06:57.333Z,102275.53
2023-03-27T19:09:51.479Z,102278.69
2023-03-27T19:12:25.370Z,102274.69
2023-03-27T19:17:40.514Z,102276.63
2023-03-27T19:20:13.041Z,102278.47
2023-03-27T19:22:42.980Z,102269.72
2023-03-27T19:25:51.408Z,102277.44
2023-03-27T19:28:30.004Z,102283.34
2023-03-27T19:31:29.317Z,102282.19
2023-03-27T19:37:51.736Z,102281.41
2023-03-27T19:41:26.342Z,102282.09
2023-03-27T19:44:16.142Z,102285.75
2023-03-27T19:47:16.784Z,102295.94
2023-03-27T19:49:46.770Z,102293.00
2023-03-27T19:52:18.898Z,102292.75
2023-03-27T19:55:04.180Z,102309.00
2023-03-27T19:57:34.092Z,102314.28
2023-03-27T20:00:14.546Z,102316.19
2023-03-27T20:02:52.980Z,102308.97
2023-03-27T20:08:34.116Z,102305.56
2023-03-27T20:11:04.618Z,102303.25
2023-03-27T20:14:11.532Z,102307.34
2023-03-27T20:17:28.094Z,102315.63
2023-03-27T20:20:01.044Z,102309.88
2023-03-27T20:22:31.359Z,102307.72
2023-03-27T20:25:01.610Z,102303.00
2023-03-27T20:27:31.810Z,102307.91
2023-03-27T20:30:03.844Z,102305.50
2023-03-27T20:32:41.722Z,102299.47
2023-03-27T20:35:23.743Z,102319.59
2023-03-27T20:37:58.062Z,102310.84
2023-03-27T20:40:51.942Z,102317.19
2023-03-27T20:43:24.489Z,102331.78
2023-03-27T20:45:59.263Z,102336.03
2023-03-27T20:48:42.882Z,102333.75
2023-03-27T20:51:25.025Z,102316.69
2023-03-27T20:53:58.317Z,102317.63
2023-03-27T20:56:31.077Z,102319.44
2023-03-27T20:59:00.987Z,102322.94
2023-03-27T21:01:34.530Z,102326.59
2023-03-27T21:04:07.132Z,102317.06
2023-03-27T21:06:37.080Z,102317.19
2023-03-27T21:09:07.692Z,102314.94
2023-03-27T21:11:39.855Z,102327.66
2023-03-27T21:14:09.822Z,102318.47
2023-03-27T21:16:40.403Z,102324.31
2023-03-27T21:19:13.280Z,102317.84
2023-03-27T21:21:45.479Z,102343.06
2023-03-27T21:24:16.170Z,102343.50
2023-03-27T21:26:46.099Z,102347.31
2023-03-27T21:29:16.078Z,102343.88
2023-03-27T21:31:49.331Z,102330.47
2023-03-27T21:34:22.850Z,102337.91
2023-03-27T21:36:53.028Z,102334.28
2023-03-27T21:39:23.122Z,102340.53
2023-03-27T21:41:53.401Z,102332.84
2023-03-27T21:44:23.373Z,102341.03
2023-03-27T21:46:53.393Z,102343.75
2023-03-27T21:49:28.806Z,102341.13
2023-03-27T21:51:58.845Z,102332.53
2023-03-27T21:54:29.038Z,102346.59
2023-03-27T21:57:01.026Z,102346.59
2023-03-27T21:59:33.425Z,102344.09
2023-03-27T22:02:03.350Z,102338.88
2023-03-27T22:04:37.104Z,102339.78
2023-03-27T22:07:09.010Z,102348.53
2023-03-27T22:09:38.915Z,102349.31
2023-03-27T22:12:11.514Z,102337.75
2023-03-27T22:14:45.358Z,102349.75
2023-03-27T22:17:15.876Z,102347.91
2023-03-27T22:19:56.246Z,102349.75
2023-03-27T22:22:26.369Z,102355.88
2023-03-27T22:24:56.443Z,102352.47
2023-03-27T22:27:35.471Z,102353.66
2023-03-27T22:30:05.407Z,102350.91
2023-03-27T22:32:35.505Z,102357.03
2023-03-27T22:35:11.454Z,102360.28
2023-03-27T22:37:41.686Z,102356.91
2023-03-27T22:40:12.512Z,102361.34
2023-03-27T22:42:42.271Z,102358.50
2023-03-27T22:45:12.950Z,102362.91
2023-03-27T22:47:44.182Z,102362.13
2023-03-27T22:50:16.825Z,102360.28
2023-03-27T22:52:53.737Z,102362.25
2023-03-27T22:55:23.528Z,102369.31
2023-03-27T22:57:53.298Z,102368.50
2023-03-27T23:00:28.503Z,102372.94
2023-03-27T23:03:02.355Z,102377.00
2023-03-27T23:05:44.239Z,102369.84
2023-03-27T23:08:14.431Z,102375.63
2023-03-27T23:10:44.384Z,102392.03
2023-03-27T23:13:14.852Z,102382.41
2023-03-27T23:15:46.245Z,102389.19
2023-03-27T23:18:16.047Z,102393.63
2023-03-27T23:20:48.447Z,102394.56
2023-03-27T23:23:18.253Z,102400.44
2023-03-27T23:25:52.689Z,102400.31
2023-03-27T23:28:30.599Z,102402.91
2023-03-27T23:31:02.377Z,102399.16
2023-03-27T23:33:36.747Z,102405.16
2023-03-27T23:36:13.313Z,102406.72
2023-03-27T23:38:43.603Z,102405.81
2023-03-27T23:41:16.478Z,102404.09
2023-03-27T23:43:48.261Z,102409.47
2023-03-27T23:46:18.972Z,102411.41
2023-03-27T23:48:52.544Z,102414.16
2023-03-27T23:51:25.236Z,102416.75
2023-03-27T23:53:55.109Z,102415.97
2023-03-27T23:56:32.356Z,102421.19
2023-03-27T23:59:08.327Z,102414.91
